createdAt,value
2019-04-22T00:00:03.034Z,12.00
2019-04-22T00:02:40.065Z,12.83
2019-04-22T00:05:17.777Z,12.97
2019-04-22T00:08:03.206Z,10.00
2019-04-22T00:10:42.016Z,11.97
2019-04-22T00:13:06.740Z,12.80
2019-04-22T00:15:34.269Z,10.87
2019-04-22T00:18:16.181Z,11.60
2019-04-22T00:20:43.896Z,11.40
2019-04-22T00:23:12.835Z,12.50
2019-04-22T00:25:48.018Z,11.70
2019-04-22T00:28:19.742Z,12.37
2019-04-22T00:30:47.400Z,11.73
2019-04-22T00:33:26.789Z,12.70
2019-04-22T00:35:54.875Z,13.03
2019-04-22T00:38:31.544Z,11.67
2019-04-22T00:40:59.118Z,11.43
2019-04-22T00:43:32.975Z,12.93
2019-04-22T00:46:03.557Z,12.10
2019-04-22T00:48:38.283Z,14.87
2019-04-22T00:53:39.203Z,13.47
2019-04-22T00:56:17.384Z,12.87
2019-04-22T01:06:20.361Z,13.03
2019-04-22T01:11:31.094Z,14.33
2019-04-22T01:13:50.077Z,12.37
2019-04-22T01:16:29.657Z,10.90
2019-04-22T01:18:55.520Z,14.17
2019-04-22T01:21:38.549Z,13.27
2019-04-22T01:23:59.711Z,15.40
2019-04-22T01:26:30.015Z,14.30
2019-04-22T01:28:58.939Z,13.57
2019-04-22T01:31:20.378Z,15.80
2019-04-22T01:34:03.049Z,19.33
2019-04-22T01:36:41.487Z,16.97
2019-04-22T01:39:16.446Z,16.47
2019-04-22T01:41:54.863Z,14.97
2019-04-22T01:46:54.061Z,18.03
2019-04-22T01:49:27.281Z,18.73
2019-04-22T01:51:59.750Z,16.97
2019-04-22T01:56:57.122Z,17.40
2019-04-22T01:59:20.697Z,14.30
2019-04-22T02:02:07.698Z,15.40
2019-04-22T02:04:38.667Z,16.80
2019-04-22T02:09:38.301Z,18.93
2019-04-22T02:14:39.804Z,18.50
2019-04-22T02:17:19.979Z,20.97
2019-04-22T02:19:53.096Z,18.47
2019-04-22T02:22:17.602Z,17.47
2019-04-22T02:24:47.702Z,20.07
2019-04-22T02:29:48.768Z,19.43
2019-04-22T02:35:03.949Z,19.83
2019-04-22T02:37:26.495Z,21.97
2019-04-22T02:42:24.717Z,21.13
2019-04-22T02:45:18.465Z,22.00
2019-04-22T02:47:27.110Z,21.13
2019-04-22T02:50:05.273Z,23.73
2019-04-22T02:55:10.250Z,22.80
2019-04-22T03:00:18.252Z,24.17
2019-04-22T03:02:54.545Z,24.00
2019-04-22T03:05:17.894Z,26.27
2019-04-22T03:07:56.115Z,24.47
2019-04-22T03:10:18.914Z,24.20
2019-04-22T03:13:09.422Z,22.90
2019-04-22T03:15:11.590Z,25.17
2019-04-22T03:17:51.638Z,22.70
2019-04-22T03:20:29.123Z,25.47
2019-04-22T03:25:51.410Z,23.07
2019-04-22T03:27:50.593Z,19.87
2019-04-22T03:35:41.983Z,21.70
2019-04-22T03:38:24.835Z,25.90
2019-04-22T03:45:46.333Z,22.13
2019-04-22T03:48:26.107Z,25.27
2019-04-22T03:50:38.793Z,20.37
2019-04-22T03:53:26.780Z,21.63
2019-04-22T03:58:11.076Z,21.87
2019-04-22T04:03:25.420Z,20.83
2019-04-22T04:10:53.507Z,24.27
2019-04-22T04:15:55.623Z,21.73
2019-04-22T04:18:44.611Z,23.47
2019-04-22T04:21:22.811Z,21.37
2019-04-22T04:23:53.306Z,21.17
2019-04-22T04:26:16.982Z,19.70
2019-04-22T04:31:25.385Z,21.07
2019-04-22T04:36:16.562Z,21.47
2019-04-22T04:39:00.006Z,19.30
2019-04-22T04:41:30.856Z,25.63
2019-04-22T04:43:52.642Z,21.17
2019-04-22T04:46:36.114Z,17.40
2019-04-22T04:49:00.079Z,20.97
2019-04-22T04:51:38.125Z,19.53
2019-04-22T04:54:08.092Z,19.80
2019-04-22T04:56:36.397Z,22.30
2019-04-22T04:59:11.918Z,21.17
2019-04-22T05:04:11.332Z,19.23
2019-04-22T05:11:50.272Z,19.70
2019-04-22T05:19:16.035Z,19.20
2019-04-22T05:21:40.217Z,18.83
2019-04-22T05:24:16.840Z,22.83
2019-04-22T05:26:48.486Z,22.90
2019-04-22T05:29:11.367Z,20.43
2019-04-22T05:31:43.577Z,22.17
2019-04-22T05:34:16.917Z,21.13
2019-04-22T05:36:47.676Z,21.13
2019-04-22T05:39:17.163Z,21.10
2019-04-22T05:41:48.301Z,19.03
2019-04-22T05:44:41.854Z,21.53
2019-04-22T05:46:47.873Z,20.50
2019-04-22T05:49:27.195Z,20.57
2019-04-22T05:51:55.252Z,19.60
2019-04-22T05:54:27.851Z,20.00
2019-04-22T05:56:51.439Z,17.33
2019-04-22T05:59:34.416Z,18.73
2019-04-22T06:02:05.255Z,20.47
2019-04-22T06:04:29.687Z,19.43
2019-04-22T06:07:05.071Z,18.57
2019-04-22T06:09:36.823Z,18.23
2019-04-22T06:12:04.985Z,18.13
2019-04-22T06:14:37.090Z,19.67
2019-04-22T06:17:18.328Z,17.17
2019-04-22T06:19:44.603Z,18.70
2019-04-22T06:22:23.869Z,17.80
2019-04-22T06:24:49.431Z,16.07
2019-04-22T06:27:30.441Z,17.67
2019-04-22T06:29:46.181Z,19.57
2019-04-22T06:34:59.502Z,16.23
2019-04-22T06:38:06.609Z,16.83
2019-04-22T06:40:04.446Z,14.17
2019-04-22T06:42:39.388Z,18.23
2019-04-22T06:45:04.163Z,15.90
2019-04-22T06:47:52.702Z,16.60
2019-04-22T06:50:07.805Z,15.70
2019-04-22T06:52:43.533Z,16.20
2019-04-22T06:55:10.201Z,16.17
2019-04-22T06:57:36.394Z,17.63
2019-04-22T07:00:14.376Z,13.70
2019-04-22T07:02:56.162Z,15.73
2019-04-22T07:05:19.841Z,13.50
2019-04-22T07:07:51.898Z,14.13
2019-04-22T07:10:30.471Z,15.43
2019-04-22T07:12:49.765Z,14.87
2019-04-22T07:15:35.752Z,14.17
2019-04-22T07:17:57.690Z,14.03
2019-04-22T07:20:23.750Z,11.87
2019-04-22T07:22:59.941Z,13.37
2019-04-22T07:25:23.451Z,13.03
2019-04-22T07:27:59.227Z,16.13
2019-04-22T07:30:41.208Z,13.50
2019-04-22T07:35:51.984Z,11.90
2019-04-22T07:38:11.266Z,11.93
2019-04-22T07:40:43.860Z,12.87
2019-04-22T07:43:15.525Z,12.43
2019-04-22T07:45:44.018Z,10.90
2019-04-22T07:53:34.317Z,12.43
2019-04-22T07:56:16.185Z,11.67
2019-04-22T07:58:46.900Z,10.50
2019-04-22T08:01:18.532Z,10.70
2019-04-22T08:06:16.782Z,12.67
2019-04-22T08:08:48.465Z,10.93
2019-04-22T08:11:37.424Z,11.33
2019-04-22T08:13:47.235Z,11.63
2019-04-22T08:16:23.334Z,11.00
2019-04-22T08:18:54.097Z,10.10
2019-04-22T08:21:23.890Z,10.73
2019-04-22T08:23:59.879Z,10.93
2019-04-22T08:26:27.382Z,12.40
2019-04-22T08:31:36.571Z,9.37
2019-04-22T08:34:07.886Z,12.73
2019-04-22T08:36:40.862Z,11.70
2019-04-22T08:39:07.803Z,11.03
2019-04-22T08:41:49.842Z,9.43
2019-04-22T08:44:11.195Z,10.90
2019-04-22T08:46:42.016Z,10.07
2019-04-22T08:49:12.409Z,11.00
2019-04-22T08:51:42.817Z,10.13
2019-04-22T08:56:45.956Z,10.50
2019-04-22T08:59:15.085Z,8.83
2019-04-22T09:01:51.383Z,9.90
2019-04-22T09:04:16.640Z,9.43
2019-04-22T09:07:07.493Z,8.93
2019-04-22T09:09:27.086Z,8.70
2019-04-22T09:11:59.907Z,8.70
2019-04-22T09:14:37.974Z,9.43
2019-04-22T09:17:10.176Z,10.83
2019-04-22T09:19:30.020Z,9.47
2019-04-22T09:22:05.001Z,8.83
2019-04-22T09:24:35.971Z,8.87
2019-04-22T09:27:11.221Z,10.17
2019-04-22T09:29:40.114Z,9.10
2019-04-22T09:32:15.336Z,10.30
2019-04-22T09:34:47.275Z,9.07
2019-04-22T09:39:52.223Z,11.00
2019-04-22T09:42:22.003Z,9.37
2019-04-22T09:44:47.355Z,8.17
2019-04-22T09:47:19.413Z,9.67
2019-04-22T09:49:54.984Z,8.63
2019-04-22T09:52:25.719Z,6.93
2019-04-22T09:55:00.178Z,6.50
2019-04-22T09:57:26.231Z,10.57
2019-04-22T10:00:04.339Z,8.37
2019-04-22T10:02:34.466Z,8.33
2019-04-22T10:07:32.120Z,6.40
2019-04-22T10:12:36.619Z,8.47
2019-04-22T10:15:10.086Z,8.93
2019-04-22T10:17:39.563Z,8.00
2019-04-22T10:20:10.295Z,6.90
2019-04-22T10:22:46.135Z,8.57
2019-04-22T10:25:32.881Z,6.53
2019-04-22T10:27:53.602Z,6.03
2019-04-22T10:30:23.527Z,7.40
2019-04-22T10:32:48.060Z,10.37
2019-04-22T10:35:18.889Z,7.43
2019-04-22T10:37:45.981Z,7.40
2019-04-22T10:40:27.977Z,8.07
2019-04-22T10:42:59.078Z,5.43
2019-04-22T10:45:30.326Z,11.23
2019-04-22T10:48:01.611Z,6.77
2019-04-22T10:50:43.542Z,7.60
2019-04-22T10:53:15.424Z,7.20
2019-04-22T10:55:47.759Z,6.57
2019-04-22T10:58:18.691Z,7.17
2019-04-22T11:00:50.255Z,6.97
2019-04-22T11:03:22.313Z,9.63
2019-04-22T11:05:54.039Z,8.37
2019-04-22T11:08:32.777Z,7.90
2019-04-22T11:11:10.640Z,7.23
2019-04-22T11:13:28.303Z,8.60
2019-04-22T11:15:58.640Z,10.10
2019-04-22T11:18:29.576Z,6.57
2019-04-22T11:20:59.862Z,7.57
2019-04-22T11:23:29.792Z,7.63
2019-04-22T11:25:59.731Z,5.80
2019-04-22T11:28:29.758Z,8.03
2019-04-22T11:31:00.802Z,11.53
2019-04-22T11:33:31.970Z,8.20
2019-04-22T11:36:03.744Z,5.60
2019-04-22T11:38:38.954Z,5.93
2019-04-22T11:41:07.129Z,6.67
2019-04-22T11:43:37.122Z,7.53
2019-04-22T11:46:07.337Z,5.83
2019-04-22T11:48:38.105Z,5.57
2019-04-22T11:51:09.639Z,5.77
2019-04-22T11:53:40.920Z,5.37
2019-04-22T11:56:11.186Z,6.77
2019-04-22T11:58:42.475Z,5.73
2019-04-22T12:01:13.047Z,7.00
2019-04-22T12:03:44.194Z,7.67
2019-04-22T12:06:15.665Z,5.40
2019-04-22T12:08:45.981Z,7.20
2019-04-22T12:11:16.704Z,8.37
2019-04-22T12:13:46.606Z,6.77
2019-04-22T12:16:17.104Z,6.63
2019-04-22T12:18:47.303Z,6.37
2019-04-22T12:21:17.222Z,4.47
2019-04-22T12:23:47.245Z,6.40
2019-04-22T12:26:20.593Z,7.70
2019-04-22T12:28:50.986Z,4.83
2019-04-22T12:31:21.808Z,6.07
2019-04-22T12:33:52.971Z,7.00
2019-04-22T12:36:24.446Z,4.87
2019-04-22T12:38:55.347Z,5.13
2019-04-22T12:41:25.883Z,3.97
2019-04-22T12:43:55.879Z,4.70
2019-04-22T12:46:26.172Z,6.40
2019-04-22T12:48:56.361Z,7.80
2019-04-22T12:51:27.231Z,6.37
2019-04-22T12:53:59.109Z,5.30
2019-04-22T12:56:29.961Z,5.07
2019-04-22T12:59:01.108Z,6.03
2019-04-22T13:01:31.290Z,5.03
2019-04-22T13:04:05.783Z,8.43
2019-04-22T13:06:32.675Z,5.67
2019-04-22T13:09:02.547Z,5.57
2019-04-22T13:11:36.336Z,6.47
2019-04-22T13:14:05.059Z,4.90
2019-04-22T13:16:35.315Z,5.97
2019-04-22T13:19:11.256Z,5.97
2019-04-22T13:21:38.472Z,5.93
2019-04-22T13:24:09.095Z,5.97
2019-04-22T13:26:38.996Z,4.90
2019-04-22T13:29:09.047Z,5.37
2019-04-22T13:31:40.539Z,4.77
2019-04-22T13:34:19.967Z,7.80
2019-04-22T13:36:44.614Z,10.23
2019-04-22T13:39:14.429Z,5.47
2019-04-22T13:41:50.446Z,5.13
2019-04-22T13:44:16.713Z,5.60
2019-04-22T13:47:07.135Z,5.33
2019-04-22T13:49:54.138Z,5.57
2019-04-22T13:52:29.230Z,7.13
2019-04-22T13:57:14.760Z,5.80
2019-04-22T13:59:31.225Z,4.27
2019-04-22T14:02:04.441Z,6.03
2019-04-22T14:04:36.858Z,5.17
2019-04-22T14:07:07.217Z,5.60
2019-04-22T14:09:38.216Z,5.63
2019-04-22T14:12:11.495Z,4.60
2019-04-22T14:14:42.741Z,4.87
2019-04-22T14:17:11.449Z,6.77
2019-04-22T14:19:42.352Z,6.17
2019-04-22T14:22:13.754Z,5.40
2019-04-22T14:24:44.934Z,7.27
2019-04-22T14:27:27.694Z,6.90
2019-04-22T14:29:47.224Z,5.20
2019-04-22T14:32:21.831Z,5.97
2019-04-22T14:34:49.168Z,6.27
2019-04-22T14:37:20.233Z,6.17
2019-04-22T14:39:51.337Z,6.07
2019-04-22T14:42:39.424Z,5.73
2019-04-22T14:47:53.931Z,7.70
2019-04-22T14:50:20.599Z,4.37
2019-04-22T14:52:50.862Z,5.30
2019-04-22T14:55:07.618Z,5.20
2019-04-22T14:57:31.837Z,7.30
2019-04-22T15:00:02.311Z,6.43
2019-04-22T15:02:32.199Z,3.53
2019-04-22T15:05:02.029Z,4.27
2019-04-22T15:07:33.002Z,5.20
2019-04-22T15:10:04.155Z,3.67
2019-04-22T15:12:42.030Z,3.37
2019-04-22T15:15:15.544Z,4.77
2019-04-22T15:17:51.067Z,6.13
2019-04-22T15:20:23.759Z,7.70
2019-04-22T15:22:54.739Z,5.97
2019-04-22T15:25:24.608Z,4.03
2019-04-22T15:27:55.301Z,8.30
2019-04-22T15:30:25.499Z,4.13
2019-04-22T15:32:55.486Z,5.17
2019-04-22T15:35:27.238Z,4.93
2019-04-22T15:37:57.337Z,6.97
2019-04-22T15:40:27.172Z,4.93
2019-04-22T15:42:57.202Z,6.43
2019-04-22T15:45:28.546Z,5.50
2019-04-22T15:47:59.886Z,3.33
2019-04-22T15:50:30.887Z,4.30
2019-04-22T15:53:02.566Z,5.30
2019-04-22T15:55:32.618Z,3.67
2019-04-22T15:58:03.896Z,6.37
2019-04-22T16:00:44.431Z,6.07
2019-04-22T16:03:08.460Z,4.73
2019-04-22T16:05:36.982Z,6.27
2019-04-22T16:08:06.873Z,3.63
2019-04-22T16:10:37.928Z,4.23
2019-04-22T16:13:16.137Z,4.80
2019-04-22T16:15:40.417Z,3.63
2019-04-22T16:18:11.377Z,3.73
2019-04-22T16:20:41.863Z,2.73
2019-04-22T16:23:13.291Z,5.37
2019-04-22T16:26:01.044Z,4.03
2019-04-22T16:28:31.336Z,6.83
2019-04-22T16:31:01.515Z,4.80
2019-04-22T16:33:31.343Z,3.37
2019-04-22T16:36:02.673Z,2.77
2019-04-22T16:38:33.043Z,2.70
2019-04-22T16:41:03.054Z,5.23
2019-04-22T16:43:33.026Z,3.07
2019-04-22T16:46:03.382Z,5.27
2019-04-22T16:48:33.700Z,3.87
2019-04-22T16:51:04.368Z,3.23
2019-04-22T16:53:35.045Z,4.33
2019-04-22T16:56:05.046Z,3.87
2019-04-22T16:58:36.854Z,2.57
2019-04-22T17:01:08.473Z,3.80
2019-04-22T17:03:56.624Z,4.87
2019-04-22T17:06:29.781Z,4.83
2019-04-22T17:09:00.490Z,4.00
2019-04-22T17:11:31.733Z,3.37
2019-04-22T17:14:03.426Z,3.13
2019-04-22T17:16:34.526Z,4.67
2019-04-22T17:19:05.805Z,4.17
2019-04-22T17:21:37.378Z,2.23
2019-04-22T17:24:07.895Z,2.80
2019-04-22T17:26:38.760Z,5.60
2019-04-22T17:29:10.246Z,4.93
2019-04-22T17:31:48.448Z,3.17
2019-04-22T17:34:13.664Z,4.50
2019-04-22T17:36:44.696Z,2.57
2019-04-22T17:39:30.253Z,2.53
2019-04-22T17:42:02.328Z,3.20
2019-04-22T17:44:43.950Z,3.10
2019-04-22T17:47:16.341Z,5.33
2019-04-22T17:52:25.100Z,3.23
2019-04-22T17:54:53.051Z,3.60
2019-04-22T17:57:27.861Z,4.57
2019-04-22T18:00:00.033Z,4.60
2019-04-22T18:02:26.781Z,5.33
2019-04-22T18:04:56.282Z,3.37
2019-04-22T18:07:44.466Z,3.10
2019-04-22T18:13:01.740Z,2.40
2019-04-22T18:15:23.829Z,3.50
2019-04-22T18:18:06.390Z,3.20
2019-04-22T18:20:30.508Z,9.80
2019-04-22T18:23:03.633Z,5.27
2019-04-22T18:25:48.427Z,2.47
2019-04-22T18:28:17.589Z,5.20
2019-04-22T18:30:37.438Z,2.80
2019-04-22T18:33:20.701Z,3.13
2019-04-22T18:35:44.503Z,2.53
2019-04-22T18:38:33.346Z,3.40
2019-04-22T18:40:50.616Z,3.03
2019-04-22T18:43:33.968Z,3.70
2019-04-22T18:46:12.460Z,3.63
2019-04-22T18:48:52.285Z,3.17
2019-04-22T18:51:29.379Z,3.10
2019-04-22T18:54:09.897Z,3.27
2019-04-22T18:56:37.621Z,3.43
2019-04-22T18:59:09.607Z,3.83
2019-04-22T19:01:33.575Z,4.43
2019-04-22T19:04:17.397Z,3.57
2019-04-22T19:07:07.250Z,3.73
2019-04-22T19:09:51.639Z,3.80
2019-04-22T19:12:28.611Z,2.83
2019-04-22T19:15:08.260Z,3.13
2019-04-22T19:17:39.194Z,4.40
2019-04-22T19:22:37.918Z,3.40
2019-04-22T19:24:57.666Z,4.00
2019-04-22T19:27:39.296Z,7.93
2019-04-22T19:30:12.349Z,3.97
2019-04-22T19:32:41.905Z,3.33
2019-04-22T19:35:04.879Z,5.33
2019-04-22T19:37:39.836Z,6.57
2019-04-22T19:40:17.610Z,2.57
2019-04-22T19:42:53.066Z,3.93
2019-04-22T19:45:10.684Z,2.70
2019-04-22T19:47:50.498Z,6.37
2019-04-22T19:50:23.198Z,4.20
2019-04-22T19:52:51.403Z,8.80
2019-04-22T19:55:23.924Z,4.33
2019-04-22T19:57:52.451Z,5.90
2019-04-22T20:00:23.995Z,5.67
2019-04-22T20:03:03.634Z,3.40
2019-04-22T20:05:37.511Z,3.57
2019-04-22T20:08:11.212Z,5.97
2019-04-22T20:10:38.049Z,6.70
2019-04-22T20:13:18.761Z,5.93
2019-04-22T20:15:33.491Z,6.60
2019-04-22T20:18:37.295Z,6.20
2019-04-22T20:20:46.620Z,4.00
2019-04-22T20:23:14.510Z,4.73
2019-04-22T20:25:44.868Z,3.87
2019-04-22T20:28:22.521Z,5.80
2019-04-22T20:30:51.145Z,4.20
2019-04-22T20:33:29.165Z,4.40
2019-04-22T20:35:58.652Z,6.17
2019-04-22T20:38:27.708Z,7.60
2019-04-22T20:40:58.109Z,7.53
2019-04-22T20:43:40.378Z,6.37
2019-04-22T20:46:05.500Z,7.40
2019-04-22T20:48:41.138Z,4.50
2019-04-22T20:51:04.135Z,5.33
2019-04-22T20:53:44.207Z,4.60
2019-04-22T20:56:09.934Z,5.13
2019-04-22T20:58:42.876Z,6.33
2019-04-22T21:01:03.817Z,7.10
2019-04-22T21:03:33.622Z,5.43
2019-04-22T21:06:19.187Z,5.97
2019-04-22T21:08:47.619Z,7.43
2019-04-22T21:11:17.432Z,9.63
2019-04-22T21:13:48.633Z,6.80
2019-04-22T21:16:27.045Z,5.07
2019-04-22T21:18:46.075Z,5.40
2019-04-22T21:21:33.414Z,5.70
2019-04-22T21:23:52.901Z,5.60
2019-04-22T21:26:29.709Z,5.67
2019-04-22T21:28:58.132Z,7.87
2019-04-22T21:31:33.710Z,6.10
2019-04-22T21:34:02.143Z,4.57
2019-04-22T21:36:58.146Z,6.53
2019-04-22T21:39:05.233Z,9.20
2019-04-22T21:41:37.523Z,4.73
2019-04-22T21:44:14.250Z,7.07
2019-04-22T21:46:51.168Z,7.67
2019-04-22T21:49:25.472Z,5.30
2019-04-22T21:52:12.941Z,7.23
2019-04-22T21:54:28.631Z,7.63
2019-04-22T21:57:18.842Z,6.57
2019-04-22T21:59:40.465Z,6.57
2019-04-22T22:02:13.860Z,6.60
2019-04-22T22:04:38.419Z,5.90
2019-04-22T22:07:04.483Z,6.13
2019-04-22T22:09:47.663Z,6.87
2019-04-22T22:12:17.945Z,5.40
2019-04-22T22:14:51.553Z,8.10
2019-04-22T22:17:18.804Z,10.07
2019-04-22T22:19:49.616Z,6.53
2019-04-22T22:22:42.137Z,6.73
2019-04-22T22:24:57.247Z,6.57
2019-04-22T22:27:34.194Z,8.67
2019-04-22T22:32:35.060Z,8.20
2019-04-22T22:35:10.127Z,7.97
2019-04-22T22:37:26.846Z,6.93
2019-04-22T22:39:55.408Z,6.07
2019-04-22T22:42:28.828Z,10.37
2019-04-22T22:45:02.665Z,7.97
2019-04-22T22:47:42.278Z,7.40
2019-04-22T22:50:18.609Z,6.67
2019-04-22T22:53:00.949Z,9.43
2019-04-22T22:55:20.128Z,8.53
2019-04-22T22:57:50.050Z,8.87
2019-04-22T23:00:22.232Z,9.50
2019-04-22T23:03:06.964Z,8.63
2019-04-22T23:05:29.114Z,10.77
2019-04-22T23:08:05.938Z,7.83
2019-04-22T23:10:32.796Z,9.40
2019-04-22T23:13:06.525Z,10.43
2019-04-22T23:15:27.707Z,10.70
2019-04-22T23:17:43.687Z,10.27
2019-04-22T23:20:18.576Z,7.87
2019-04-22T23:23:09.048Z,9.67
2019-04-22T23:25:44.929Z,11.40
2019-04-22T23:28:13.363Z,9.20
2019-04-22T23:30:39.101Z,11.13
2019-04-22T23:33:27.678Z,10.13
2019-04-22T23:35:57.552Z,9.37
2019-04-22T23:38:38.495Z,8.40
2019-04-22T23:41:16.679Z,9.70
2019-04-22T23:43:53.796Z,9.53
2019-04-22T23:46:11.439Z,8.40
2019-04-22T23:48:35.814Z,9.43
2019-04-22T23:51:13.633Z,12.87
2019-04-22T23:53:59.811Z,8.20
2019-04-22T23:56:19.236Z,9.13
2019-04-22T23:58:56.842Z,13.30
